Time;durP1;ratioP1;P1;durP2;ratioP2;P2;SDS_P1;SDS_P2;PMS_P1;PMS_P2;Temp;Humidity;BMP_temperature;BMP_pressure;BME280_temperature;BME280_humidity;BME280_pressure;Samples;Min_cycle;Max_cycle;Signal;HPM_P1;HPM_P2
2024/01/08 00:00:48;;;;;;;4.17;2.60;;;;;;;-1.38;100.00;102845.31;5075882;28;20035;-88
2024/01/08 00:03:14;;;;;;;2.63;1.87;;;;;;;-1.39;100.00;102840.94;5076732;28;20430;-88
2024/01/08 00:05:40;;;;;;;3.33;1.95;;;;;;;-1.44;100.00;102836.72;5076955;28;20032;-88
2024/01/08 00:08:06;;;;;;;5.63;2.87;;;;;;;-1.44;100.00;102835.88;5094322;28;20040;-89
2024/01/08 00:10:32;;;;;;;3.63;2.47;;;;;;;-1.52;100.00;102836.31;5076938;28;20074;-88
2024/01/08 00:12:57;;;;;;;3.17;2.07;;;;;;;-1.51;100.00;102843.34;5076815;28;20082;-88
2024/01/08 00:15:23;;;;;;;4.03;2.50;;;;;;;-1.60;100.00;102831.41;5076846;28;20039;-88
2024/01/08 00:17:48;;;;;;;3.37;2.10;;;;;;;-1.55;100.00;102846.25;5059795;28;20028;-88
2024/01/08 00:20:14;;;;;;;3.37;2.33;;;;;;;-1.60;100.00;102838.53;5075846;28;20036;-88
2024/01/08 00:22:39;;;;;;;3.17;1.90;;;;;;;-1.57;100.00;102834.84;5076307;28;20062;-88
2024/01/08 00:25:06;;;;;;;3.70;2.42;;;;;;;-1.54;100.00;102840.00;5094405;28;20042;-88
2024/01/08 00:27:32;;;;;;;3.47;2.10;;;;;;;-1.53;100.00;102844.38;5076104;28;20488;-88
2024/01/08 00:30:00;;;;;;;3.63;2.13;;;;;;;-1.54;100.00;102840.00;5094209;28;20468;-89
2024/01/08 00:32:26;;;;;;;5.10;3.25;;;;;;;-1.53;100.00;102842.56;5075683;28;20032;-88
2024/01/08 00:34:53;;;;;;;3.63;2.30;;;;;;;-1.52;100.00;102844.31;5075713;28;20062;-88
2024/01/08 00:37:19;;;;;;;5.20;2.20;;;;;;;-1.51;100.00;102839.81;5093943;28;20024;-89
2024/01/08 00:39:50;;;;;;;3.83;2.57;;;;;;;-1.45;100.00;102850.13;5075812;28;20031;-88
2024/01/08 00:42:15;;;;;;;4.35;2.92;;;;;;;-1.47;100.00;102847.53;5094041;28;20362;-88
2024/01/08 00:44:40;;;;;;;5.43;3.30;;;;;;;-1.48;100.00;102848.47;5076057;28;20036;-88
2024/01/08 00:47:06;;;;;;;3.63;2.22;;;;;;;-1.47;100.00;102858.19;5094071;28;20266;-88
2024/01/08 00:49:31;;;;;;;6.03;3.57;;;;;;;-1.43;100.00;102848.25;5093866;28;20028;-88
2024/01/08 00:51:57;;;;;;;6.97;4.17;;;;;;;-1.37;100.00;102853.22;5059498;28;20032;-88
2024/01/08 00:54:22;;;;;;;7.70;4.00;;;;;;;-1.43;100.00;102838.44;5076364;28;20032;-88
2024/01/08 00:56:47;;;;;;;7.60;4.10;;;;;;;-1.38;100.00;102837.31;5075411;28;20119;-89
2024/01/08 00:59:13;;;;;;;7.95;4.60;;;;;;;-1.34;100.00;102836.22;5075679;28;20381;-89
2024/01/08 01:01:38;;;;;;;7.22;4.38;;;;;;;-1.36;100.00;102843.41;5093584;28;20107;-88
2024/01/08 01:04:04;;;;;;;8.50;4.53;;;;;;;-1.35;100.00;102840.66;5075687;28;20438;-88
2024/01/08 01:06:29;;;;;;;11.30;5.63;;;;;;;-1.33;100.00;102846.78;5070020;28;20021;-88
2024/01/08 01:08:54;;;;;;;11.47;5.53;;;;;;;-1.30;100.00;102849.25;5051331;28;20028;-89
2024/01/08 01:11:20;;;;;;;11.27;5.50;;;;;;;-1.30;100.00;102849.25;5093278;28;20391;-88
2024/01/08 01:13:45;;;;;;;11.77;5.93;;;;;;;-1.34;100.00;102841.53;5075196;28;20278;-88
2024/01/08 01:16:11;;;;;;;19.23;9.17;;;;;;;-1.37;100.00;102849.69;5075602;28;20024;-88
2024/01/08 01:18:36;;;;;;;18.40;9.27;;;;;;;-1.46;100.00;102856.38;5075434;28;20035;-88
2024/01/08 01:21:02;;;;;;;17.30;8.93;;;;;;;-1.44;100.00;102855.34;5075984;28;20028;-88
2024/01/08 01:23:28;;;;;;;18.33;8.20;;;;;;;-1.45;100.00;102855.44;5075398;28;20028;-87
2024/01/08 01:25:53;;;;;;;17.63;7.33;;;;;;;-1.46;100.00;102843.06;5075447;28;20039;-89
2024/01/08 01:28:21;;;;;;;17.88;8.63;;;;;;;-1.42;100.00;102849.94;5058945;28;20036;-88
2024/01/08 01:30:49;;;;;;;18.13;7.93;;;;;;;-1.42;100.00;102839.28;5058946;28;20036;-88
2024/01/08 01:33:16;;;;;;;12.00;6.60;;;;;;;-1.42;100.00;102847.28;5074972;28;20278;-88
2024/01/08 01:35:42;;;;;;;13.27;5.55;;;;;;;-1.38;100.00;102848.81;5075191;28;20044;-88
2024/01/08 01:38:07;;;;;;;12.80;5.57;;;;;;;-1.41;100.00;102857.84;5074441;28;20028;-88
2024/01/08 01:40:33;;;;;;;10.50;5.40;;;;;;;-1.39;100.00;102852.44;5067106;28;20067;-88
2024/01/08 01:42:58;;;;;;;8.27;3.77;;;;;;;-1.31;100.00;102857.34;5072094;28;20094;-88
2024/01/08 01:45:33;;;;;;;6.83;3.17;;;;;;;-1.37;100.00;102855.88;5073139;28;20472;-88
2024/01/08 01:47:59;;;;;;;6.95;4.07;;;;;;;-1.37;100.00;102860.31;5055160;28;20032;-88
2024/01/08 01:50:24;;;;;;;7.13;4.63;;;;;;;-1.45;100.00;102863.44;5038769;28;20438;-88
2024/01/08 01:52:51;;;;;;;6.05;3.45;;;;;;;-1.59;100.00;102849.09;5071704;28;20851;-88
2024/01/08 01:55:16;;;;;;;6.72;3.90;;;;;;;-1.63;100.00;102847.56;5054729;28;20391;-88
2024/01/08 01:57:43;;;;;;;9.97;4.93;;;;;;;-1.63;100.00;102858.19;5055045;28;20037;-88
2024/01/08 02:00:09;;;;;;;8.60;3.50;;;;;;;-1.73;100.00;102842.84;5100436;28;20071;-88
2024/01/08 02:02:35;;;;;;;5.93;3.30;;;;;;;-1.66;100.00;102858.38;5113325;28;20031;-88
2024/01/08 02:05:01;;;;;;;5.80;3.23;;;;;;;-1.65;100.00;102860.09;5095404;28;20042;-88
2024/01/08 02:07:27;;;;;;;4.40;2.80;;;;;;;-1.65;100.00;102852.13;5113189;28;20031;-88
2024/01/08 02:09:52;;;;;;;6.07;2.60;;;;;;;-1.63;100.00;102852.03;5094805;28;20031;-88
2024/01/08 02:12:21;;;;;;;6.70;3.95;;;;;;;-1.63;100.00;102860.00;5078420;28;20047;-88
2024/01/08 02:14:49;;;;;;;5.23;3.50;;;;;;;-1.53;100.00;102865.69;5113519;28;20483;-88
2024/01/08 02:17:15;;;;;;;7.55;3.72;;;;;;;-1.51;100.00;102864.63;5113518;28;20277;-88
2024/01/08 02:19:40;;;;;;;4.05;2.75;;;;;;;-1.50;100.00;102862.84;5113260;28;20089;-88
2024/01/08 02:22:06;;;;;;;4.30;2.93;;;;;;;-1.41;100.00;102871.16;5077853;28;20043;-88
2024/01/08 02:24:31;;;;;;;4.47;3.00;;;;;;;-1.37;100.00;102876.31;5041569;28;20035;-88
2024/01/08 02:27:00;;;;;;;4.17;3.00;;;;;;;-1.39;100.00;102871.06;5075101;28;20127;-88
2024/01/08 02:29:28;;;;;;;4.13;2.60;;;;;;;-1.39;100.00;102863.06;5092377;28;20479;-88
2024/01/08 02:31:56;;;;;;;5.97;3.22;;;;;;;-1.39;100.00;102855.09;5092768;28;20494;-88
2024/01/08 02:34:22;;;;;;;3.42;2.22;;;;;;;-1.34;100.00;102868.16;5092424;28;20035;-89
2024/01/08 02:36:47;;;;;;;3.20;1.90;;;;;;;-1.32;100.00;102871.59;5074396;28;20028;-88
2024/01/08 02:39:13;;;;;;;4.60;2.60;;;;;;;-1.40;100.00;102864.03;5092083;28;20066;-89
2024/01/08 02:41:40;;;;;;;3.20;2.10;;;;;;;-1.51;100.00;102861.97;5074600;28;20454;-88
2024/01/08 02:44:06;;;;;;;4.32;2.38;;;;;;;-1.55;100.00;102870.22;5075472;28;20373;-88
2024/01/08 02:46:31;;;;;;;5.07;2.90;;;;;;;-1.73;100.00;102866.78;5061836;28;20089;-88
2024/01/08 02:48:58;;;;;;;4.47;2.40;;;;;;;-1.78;100.00;102875.88;5078314;28;20395;-90
2024/01/08 02:51:24;;;;;;;2.67;1.67;;;;;;;-1.92;100.00;102875.78;5078210;28;20445;-87
2024/01/08 02:53:52;;;;;;;4.10;1.90;;;;;;;-1.99;100.00;102877.09;5077851;28;20028;-88
2024/01/08 02:56:21;;;;;;;3.38;2.00;;;;;;;-2.02;100.00;102882.53;5077613;28;20071;-88
2024/01/08 02:58:50;;;;;;;2.90;1.63;;;;;;;-2.13;100.00;102884.00;5078004;28;20029;-88
2024/01/08 03:01:19;;;;;;;3.10;1.80;;;;;;;-2.19;100.00;102880.78;5077853;28;20028;-88
2024/01/08 03:03:44;;;;;;;4.10;2.47;;;;;;;-2.31;100.00;102884.97;5077743;28;20040;-89
2024/01/08 03:06:10;;;;;;;4.00;2.60;;;;;;;-2.37;100.00;102894.13;5059774;28;20143;-89
2024/01/08 03:08:35;;;;;;;5.05;2.53;;;;;;;-2.42;100.00;102893.53;5057804;28;20028;-88
2024/01/08 03:11:01;;;;;;;3.72;2.40;;;;;;;-2.48;100.00;102894.69;5057962;28;20060;-88
2024/01/08 03:13:26;;;;;;;3.27;2.23;;;;;;;-2.58;100.00;102893.44;5041447;28;20029;-88
2024/01/08 03:15:52;;;;;;;3.37;2.13;;;;;;;-2.57;100.00;102892.53;5057755;28;20029;-88
2024/01/08 03:18:17;;;;;;;5.33;2.83;;;;;;;-2.59;100.00;102893.53;5075242;28;20067;-88
2024/01/08 03:20:48;;;;;;;3.88;2.50;;;;;;;-2.66;100.00;102883.22;5041328;28;20127;-88
2024/01/08 03:23:14;;;;;;;3.30;2.03;;;;;;;-2.65;100.00;102892.88;5057741;28;20358;-88
2024/01/08 03:25:39;;;;;;;4.38;2.10;;;;;;;-2.68;100.00;102889.53;5057682;28;20035;-88
2024/01/08 03:28:05;;;;;;;2.97;1.70;;;;;;;-2.64;100.00;102888.47;5040995;28;20111;-88
2024/01/08 03:30:30;;;;;;;4.87;2.57;;;;;;;-2.66;100.00;102888.53;5074149;28;20035;-88
2024/01/08 03:32:56;;;;;;;3.03;1.77;;;;;;;-2.62;100.00;102888.38;5075269;28;20059;-88
2024/01/08 03:35:24;;;;;;;3.70;2.15;;;;;;;-2.59;100.00;102881.09;5074162;28;20123;-88
2024/01/08 03:37:50;;;;;;;2.80;1.80;;;;;;;-2.57;100.00;102887.22;5040943;28;20056;-88
2024/01/08 03:40:15;;;;;;;4.45;2.05;;;;;;;-2.49;100.00;102892.97;5057216;28;20310;-88
2024/01/08 03:42:41;;;;;;;3.10;1.83;;;;;;;-2.46;100.00;102894.63;5095298;28;20026;-88
2024/01/08 03:45:08;;;;;;;4.88;2.10;;;;;;;-2.41;100.00;102894.38;5060277;28;20058;-88
2024/01/08 03:47:34;;;;;;;3.75;2.30;;;;;;;-2.39;100.00;102890.69;5095306;28;20101;-88
2024/01/08 03:50:04;;;;;;;4.15;1.98;;;;;;;-2.32;100.00;102900.06;5076878;28;20065;-89
2024/01/08 03:52:30;;;;;;;3.95;1.95;;;;;;;-2.33;100.00;102889.53;5094597;28;20127;-89
2024/01/08 03:54:56;;;;;;;3.40;2.23;;;;;;;-2.30;100.00;102892.00;5076385;28;20528;-87
2024/01/08 03:57:21;;;;;;;3.47;1.90;;;;;;;-2.27;100.00;102886.53;5073431;28;20392;-88
2024/01/08 03:59:49;;;;;;;3.22;1.92;;;;;;;-2.15;100.00;102900.97;5073644;28;20786;-88
2024/01/08 04:02:14;;;;;;;4.43;2.20;;;;;;;-2.18;100.00;102895.81;5073103;28;20032;-88
2024/01/08 04:04:42;;;;;;;4.25;2.38;;;;;;;-2.13;100.00;102901.75;5073059;28;20304;-88
2024/01/08 04:07:09;;;;;;;2.78;1.77;;;;;;;-2.08;100.00;102896.16;5073180;28;20029;-88
2024/01/08 04:09:34;;;;;;;3.47;2.03;;;;;;;-2.02;100.00;102898.50;5070419;28;20055;-88
2024/01/08 04:12:00;;;;;;;3.80;2.20;;;;;;;-2.01;100.00;102895.78;5060363;28;20276;-88
2024/01/08 04:14:28;;;;;;;4.00;2.10;;;;;;;-1.90;100.00;102902.31;5053127;28;20040;-88
2024/01/08 04:16:53;;;;;;;3.15;2.13;;;;;;;-1.92;100.00;102896.22;5052808;28;20040;-88
2024/01/08 04:19:22;;;;;;;3.60;2.13;;;;;;;-1.91;100.00;102898.78;5053297;28;20033;-88
2024/01/08 04:21:47;;;;;;;4.55;1.95;;;;;;;-1.85;100.00;102905.59;5053249;28;20029;-88
2024/01/08 04:24:13;;;;;;;3.00;1.97;;;;;;;-1.90;100.00;102889.03;5053152;28;20170;-88
2024/01/08 04:26:39;;;;;;;3.47;2.00;;;;;;;-1.87;100.00;102889.69;5053177;28;20471;-88
2024/01/08 04:29:04;;;;;;;3.10;1.87;;;;;;;-1.79;100.00;102897.25;5052715;28;20033;-88
2024/01/08 04:31:31;;;;;;;2.85;1.73;;;;;;;-1.73;100.00;102904.06;5053037;28;20109;-88
2024/01/08 04:33:59;;;;;;;4.00;2.00;;;;;;;-1.71;100.00;102902.16;5054223;28;20082;-87
2024/01/08 04:36:25;;;;;;;4.20;2.10;;;;;;;-1.67;100.00;102898.38;5068881;28;20031;-88
2024/01/08 04:38:53;;;;;;;3.63;1.83;;;;;;;-1.68;100.00;102897.53;5052528;28;20040;-88
2024/01/08 04:41:19;;;;;;;3.20;1.92;;;;;;;-1.70;100.00;102890.56;5058808;28;20035;-88
2024/01/08 04:43:45;;;;;;;4.97;2.38;;;;;;;-1.70;100.00;102893.22;5074009;28;20089;-88
2024/01/08 04:46:10;;;;;;;3.55;2.00;;;;;;;-1.63;100.00;102899.94;5072735;28;20029;-87
2024/01/08 04:48:36;;;;;;;2.58;1.48;;;;;;;-1.64;100.00;102896.44;5072827;28;20480;-88
2024/01/08 04:51:01;;;;;;;4.60;1.70;;;;;;;-1.60;100.00;102899.78;5055995;28;20028;-88
2024/01/08 04:53:27;;;;;;;2.90;1.53;;;;;;;-1.63;100.00;102897.28;5056014;28;20047;-88
2024/01/08 04:55:52;;;;;;;3.77;1.80;;;;;;;-1.64;100.00;102890.22;5072774;28;20045;-89
2024/01/08 04:58:17;;;;;;;3.17;1.88;;;;;;;-1.63;100.00;102881.31;5072658;28;20674;-88
2024/01/08 05:00:45;;;;;;;3.80;2.00;;;;;;;-1.63;100.00;102897.28;5072618;28;20375;-87
2024/01/08 05:03:12;;;;;;;4.00;2.08;;;;;;;-1.62;100.00;102894.53;5072296;28;20029;-88
2024/01/08 05:05:38;;;;;;;3.67;2.20;;;;;;;-1.54;100.00;102901.25;5072113;28;20072;-88
2024/01/08 05:08:04;;;;;;;3.28;1.85;;;;;;;-1.61;100.00;102895.38;5055521;28;20306;-88
2024/01/08 05:10:29;;;;;;;3.58;1.80;;;;;;;-1.56;100.00;102895.16;5072780;28;20025;-88
2024/01/08 05:12:57;;;;;;;3.90;2.03;;;;;;;-1.54;100.00;102887.94;5072512;28;20028;-88
2024/01/08 05:15:22;;;;;;;4.78;2.50;;;;;;;-1.57;100.00;102890.75;5072641;28;20105;-88
2024/01/08 05:17:50;;;;;;;3.77;2.00;;;;;;;-1.56;100.00;102885.34;5073626;28;20103;-88
2024/01/08 05:20:16;;;;;;;5.88;1.63;;;;;;;-1.54;100.00;102885.25;5072845;28;20119;-88
2024/01/08 05:22:41;;;;;;;2.57;1.50;;;;;;;-1.49;100.00;102888.50;5072612;28;20526;-88
2024/01/08 05:25:08;;;;;;;5.32;2.53;;;;;;;-1.53;100.00;102885.19;5073597;28;20025;-88
2024/01/08 05:27:33;;;;;;;3.03;1.67;;;;;;;-1.50;100.00;102881.50;5073913;28;20456;-88
2024/01/08 05:29:59;;;;;;;4.75;1.98;;;;;;;-1.51;100.00;102885.94;5072571;28;20040;-88
2024/01/08 05:32:24;;;;;;;3.80;2.30;;;;;;;-1.48;100.00;102898.22;5073612;28;20434;-88
2024/01/08 05:34:50;;;;;;;3.17;1.50;;;;;;;-1.49;100.00;102886.72;5072684;28;20032;-87
2024/01/08 05:37:18;;;;;;;6.18;2.60;;;;;;;-1.46;100.00;102891.00;5072651;28;20024;-87
2024/01/08 05:39:44;;;;;;;3.22;2.00;;;;;;;-1.48;100.00;102888.41;5071991;28;20101;-88
2024/01/08 05:42:09;;;;;;;3.08;1.88;;;;;;;-1.49;100.00;102897.38;5073604;28;20025;-88
2024/01/08 05:44:35;;;;;;;6.75;2.20;;;;;;;-1.48;100.00;102887.56;5072504;28;20032;-88
2024/01/08 05:47:02;;;;;;;5.03;2.13;;;;;;;-1.47;100.00;102892.81;5072692;28;20025;-88
2024/01/08 05:49:28;;;;;;;2.55;1.30;;;;;;;-1.47;100.00;102892.81;5072968;28;20028;-88
2024/01/08 05:51:53;;;;;;;3.47;2.20;;;;;;;-1.46;100.00;102891.00;5072326;28;20028;-88
2024/01/08 05:54:19;;;;;;;4.67;2.10;;;;;;;-1.42;100.00;102890.75;5073399;28;20024;-90
2024/01/08 05:56:44;;;;;;;4.72;2.42;;;;;;;-1.42;100.00;102890.75;5071962;28;20650;-89
2024/01/08 05:59:10;;;;;;;2.67;1.53;;;;;;;-1.38;100.00;102890.59;5055652;28;20041;-87
2024/01/08 06:01:35;;;;;;;4.17;2.10;;;;;;;-1.41;100.00;102884.47;5072396;28;20086;-88
2024/01/08 06:04:01;;;;;;;4.77;2.80;;;;;;;-1.48;100.00;102885.75;5072406;28;20443;-88
2024/01/08 06:06:27;;;;;;;4.65;3.08;;;;;;;-1.43;100.00;102893.50;5073860;28;20773;-88
2024/01/08 06:08:53;;;;;;;6.13;3.13;;;;;;;-1.43;100.00;102890.84;5073590;28;20090;-88
2024/01/08 06:11:19;;;;;;;4.60;2.70;;;;;;;-1.47;100.00;102876.84;5072639;28;20078;-88
2024/01/08 06:13:44;;;;;;;5.00;2.70;;;;;;;-1.44;100.00;102889.13;5073967;28;20036;-87
2024/01/08 06:16:21;;;;;;;4.50;2.50;;;;;;;-1.43;100.00;102878.38;5072384;28;20086;-88
2024/01/08 06:18:46;;;;;;;3.83;2.00;;;;;;;-1.37;100.00;102889.63;5073060;28;20032;-89
2024/01/08 06:21:12;;;;;;;5.97;3.00;;;;;;;-1.40;100.00;102885.34;5076088;28;20453;-87
2024/01/08 06:23:38;;;;;;;3.97;2.17;;;;;;;-1.38;100.00;102887.94;5065853;28;20486;-87
2024/01/08 06:26:07;;;;;;;3.57;2.23;;;;;;;-1.38;100.00;102886.09;5057524;28;20032;-88
2024/01/08 06:28:32;;;;;;;4.65;2.55;;;;;;;-1.37;100.00;102889.63;5076996;28;20028;-88
2024/01/08 06:31:02;;;;;;;5.00;2.70;;;;;;;-1.43;100.00;102875.72;5077981;28;20069;-87
2024/01/08 06:33:27;;;;;;;6.53;3.17;;;;;;;-1.43;100.00;102877.53;5076658;28;20025;-88
2024/01/08 06:35:55;;;;;;;4.47;2.47;;;;;;;-1.41;100.00;102886.28;5043420;28;20490;-87
2024/01/08 06:38:21;;;;;;;4.40;2.35;;;;;;;-1.39;100.00;102886.19;5060617;28;20111;-88
2024/01/08 06:40:46;;;;;;;3.63;2.23;;;;;;;-1.39;100.00;102876.41;5077606;28;20064;-88
2024/01/08 06:43:12;;;;;;;4.85;2.58;;;;;;;-1.39;100.00;102879.06;5076946;28;20037;-89
2024/01/08 06:45:40;;;;;;;4.53;2.30;;;;;;;-1.37;100.00;102885.19;5078364;28;20033;-88
2024/01/08 06:48:08;;;;;;;4.55;2.60;;;;;;;-1.37;100.00;102885.19;5077699;28;20025;-90
2024/01/08 06:50:34;;;;;;;5.05;3.25;;;;;;;-1.40;100.00;102877.38;5076156;28;20043;-90
2024/01/08 06:53:17;;;;;;;4.97;2.70;;;;;;;-1.37;100.00;102878.97;5076084;28;20481;-87
2024/01/08 06:55:44;;;;;;;7.05;2.70;;;;;;;-1.38;100.00;102875.47;5072266;28;20061;-87
2024/01/08 06:58:25;;;;;;;5.55;2.80;;;;;;;-1.34;100.00;102882.34;5072372;28;20112;-88
2024/01/08 07:00:51;;;;;;;6.07;3.25;;;;;;;-1.39;100.00;102872.88;5056632;28;20111;-88
2024/01/08 07:03:17;;;;;;;6.93;3.43;;;;;;;-1.36;100.00;102881.53;5055719;28;20052;-88
2024/01/08 07:05:45;;;;;;;5.70;2.85;;;;;;;-1.32;100.00;102887.56;5056112;28;20043;-87
2024/01/08 07:08:31;;;;;;;3.80;2.60;;;;;;;-1.31;100.00;102881.31;5055380;28;20059;-93
2024/01/08 07:10:56;;;;;;;4.60;2.65;;;;;;;-1.28;100.00;102889.97;5039410;28;20283;-87
2024/01/08 07:13:22;;;;;;;8.65;3.75;;;;;;;-1.31;100.00;102882.16;5076918;28;20032;-88
2024/01/08 07:15:48;;;;;;;4.53;2.40;;;;;;;-1.30;100.00;102885.66;5075125;28;20082;-87
2024/01/08 07:18:20;;;;;;;6.82;3.50;;;;;;;-1.27;100.00;102882.81;5075204;28;20548;-87
2024/01/08 07:20:47;;;;;;;8.37;3.37;;;;;;;-1.23;100.00;102889.69;5075299;28;20105;-87
2024/01/08 07:23:15;;;;;;;8.00;4.05;;;;;;;-1.18;100.00;102900.97;5074691;28;20036;-86
2024/01/08 07:25:43;;;;;;;5.82;2.88;;;;;;;-1.17;100.00;102896.50;5074917;28;20032;-87
2024/01/08 07:28:10;;;;;;;4.00;2.33;;;;;;;-1.14;100.00;102890.97;5074655;28;20029;-87
2024/01/08 07:30:38;;;;;;;5.22;3.35;;;;;;;-1.09;100.00;102902.25;5075592;28;20025;-86
2024/01/08 07:33:04;;;;;;;4.97;2.57;;;;;;;-1.09;100.00;102897.75;5076498;28;20074;-87
2024/01/08 07:35:30;;;;;;;6.35;3.45;;;;;;;-1.06;100.00;102900.25;5075325;28;20033;-88
2024/01/08 07:37:55;;;;;;;5.13;2.67;;;;;;;-1.01;100.00;102899.97;5074907;28;20028;-88
2024/01/08 07:40:28;;;;;;;6.60;3.58;;;;;;;-0.99;100.00;102905.22;5073731;28;20024;-87
2024/01/08 07:42:57;;;;;;;6.30;3.00;;;;;;;-0.98;100.00;102906.94;5076323;28;20122;-87
2024/01/08 07:45:24;;;;;;;6.82;3.40;;;;;;;-0.96;100.00;102915.69;5075195;28;20028;-87
2024/01/08 07:47:54;;;;;;;5.78;2.85;;;;;;;-0.91;100.00;102927.81;5058275;28;20024;-88
2024/01/08 07:50:22;;;;;;;8.40;4.07;;;;;;;-0.89;100.00;102931.25;5075470;28;20028;-87
2024/01/08 07:55:47;;;;;;;5.10;2.73;;;;;;;-0.91;100.00;102916.31;5071645;28;20041;-88
2024/01/08 07:58:18;;;;;;;5.60;2.92;;;;;;;-0.87;100.00;102928.50;5082849;28;20480;-87
2024/01/08 08:00:47;;;;;;;6.30;3.25;;;;;;;-0.86;100.00;102922.22;5069904;28;20024;-88
2024/01/08 08:03:14;;;;;;;6.73;3.53;;;;;;;-0.83;100.00;102924.69;5072646;28;20395;-87
2024/01/08 08:05:51;;;;;;;8.15;3.92;;;;;;;-0.84;100.00;102914.13;5077739;28;20025;-87
2024/01/08 08:08:21;;;;;;;6.80;3.45;;;;;;;-0.80;100.00;102934.31;5075698;28;20490;-91
2024/01/08 08:10:47;;;;;;;10.63;4.20;;;;;;;-0.85;100.00;102926.59;5059774;28;20047;-85
2024/01/08 08:13:15;;;;;;;5.60;3.13;;;;;;;-0.80;100.00;102919.19;5073772;28;20032;-86
2024/01/08 08:15:42;;;;;;;5.13;2.80;;;;;;;-0.74;100.00;102929.50;5093297;28;20034;-87
2024/01/08 08:18:09;;;;;;;7.68;4.05;;;;;;;-0.78;100.00;102932.44;5031733;28;20043;-86
2024/01/08 08:20:36;;;;;;;4.73;2.97;;;;;;;-0.73;100.00;102933.88;5071080;28;20044;-86
2024/01/08 08:23:02;;;;;;;4.85;3.00;;;;;;;-0.74;100.00;102937.50;5071777;28;20059;-86
2024/01/08 08:25:27;;;;;;;4.53;2.58;;;;;;;-0.64;100.00;102943.13;5076738;28;20457;-86
2024/01/08 08:27:53;;;;;;;5.77;2.90;;;;;;;-0.67;100.00;102929.16;5072231;28;20451;-86
2024/01/08 08:30:26;;;;;;;5.73;2.73;;;;;;;-0.63;100.00;102936.88;5075444;28;20027;-86
2024/01/08 08:32:58;;;;;;;6.10;3.35;;;;;;;-0.60;100.00;102933.16;5071671;28;20085;-87
2024/01/08 08:35:27;;;;;;;4.88;2.70;;;;;;;-0.63;100.00;102923.53;5075788;28;20024;-87
2024/01/08 08:37:58;;;;;;;5.30;2.80;;;;;;;-0.59;100.00;102927.75;5063034;28;20024;-87
2024/01/08 08:40:23;;;;;;;4.38;3.00;;;;;;;-0.52;100.00;102936.22;5058634;28;20369;-86
2024/01/08 08:42:49;;;;;;;6.00;3.00;;;;;;;-0.48;100.00;102932.44;5070869;28;20534;-86
2024/01/08 08:45:22;;;;;;;4.67;2.20;;;;;;;-0.45;100.00;102939.41;5075914;28;20097;-87
2024/01/08 08:47:57;;;;;;;5.55;2.65;;;;;;;-0.39;100.00;102949.69;5058399;28;20028;-87
2024/01/08 08:50:23;;;;;;;4.77;2.63;;;;;;;-0.37;100.00;102937.09;5057694;28;20035;-86
2024/01/08 08:52:56;;;;;;;4.20;2.70;;;;;;;-0.40;100.00;102929.28;5079745;28;20281;-86
2024/01/08 08:55:22;;;;;;;5.00;2.60;;;;;;;-0.32;100.00;102950.19;5071648;28;20037;-86
2024/01/08 08:57:50;;;;;;;5.27;2.70;;;;;;;-0.29;100.00;102947.34;5074974;28;20062;-86
2024/01/08 09:00:16;;;;;;;4.35;2.78;;;;;;;-0.36;100.00;102929.00;5075858;28;20031;-87
2024/01/08 09:02:42;;;;;;;5.83;3.37;;;;;;;-0.34;100.00;102939.59;5095087;28;20036;-86
2024/01/08 09:05:10;;;;;;;6.97;3.67;;;;;;;-0.36;100.00;102933.50;5095908;28;20020;-87
2024/01/08 09:07:38;;;;;;;6.38;2.72;;;;;;;-0.31;100.00;102936.75;5096333;28;20035;-86
2024/01/08 09:10:03;;;;;;;4.25;2.47;;;;;;;-0.25;100.00;102948.84;5078812;28;20096;-86
2024/01/08 09:12:29;;;;;;;3.60;2.30;;;;;;;-0.25;100.00;102943.50;5096711;28;20399;-86
2024/01/08 09:14:55;;;;;;;3.15;2.38;;;;;;;-0.23;100.00;102954.97;5097001;28;20035;-86
2024/01/08 09:17:23;;;;;;;3.63;2.30;;;;;;;-0.31;100.00;102949.22;5096579;28;20027;-86
2024/01/08 09:19:49;;;;;;;5.15;2.17;;;;;;;-0.30;100.00;102959.78;5114726;28;20378;-86
2024/01/08 09:22:15;;;;;;;3.38;2.33;;;;;;;-0.34;100.00;102958.25;5114865;28;20450;-86
2024/01/08 09:24:41;;;;;;;5.72;3.35;;;;;;;-0.36;100.00;102955.69;5071469;28;20085;-86
2024/01/08 09:27:06;;;;;;;4.53;3.05;;;;;;;-0.44;100.00;102949.97;5067421;28;20475;-86
2024/01/08 09:29:34;;;;;;;4.77;2.50;;;;;;;-0.45;100.00;102950.91;5094462;28;20072;-86
2024/01/08 09:32:02;;;;;;;6.35;3.03;;;;;;;-0.47;100.00;102957.28;5076096;28;20480;-86
2024/01/08 09:34:28;;;;;;;3.55;2.00;;;;;;;-0.43;100.00;102966.81;5076169;28;20063;-87
2024/01/08 09:36:55;;;;;;;4.20;2.60;;;;;;;-0.48;100.00;102968.91;5075847;28;20051;-87
2024/01/08 09:39:21;;;;;;;5.40;3.63;;;;;;;-0.47;100.00;102978.63;5075768;28;20032;-86
2024/01/08 09:41:48;;;;;;;5.10;2.73;;;;;;;-0.47;100.00;102962.59;5076270;28;20452;-86
2024/01/08 09:44:15;;;;;;;5.85;3.50;;;;;;;-0.47;100.00;102959.94;5076294;28;20024;-86
2024/01/08 09:46:47;;;;;;;5.55;3.03;;;;;;;-0.50;100.00;102966.34;5075885;28;20032;-86
2024/01/08 09:49:18;;;;;;;4.43;2.83;;;;;;;-0.50;100.00;102973.47;5076210;28;20136;-86
2024/01/08 09:51:44;;;;;;;4.67;3.20;;;;;;;-0.53;100.00;102982.53;5093890;28;20487;-86
2024/01/08 09:54:20;;;;;;;5.82;3.17;;;;;;;-0.58;100.00;102982.78;5078637;28;20274;-86
2024/01/08 09:56:50;;;;;;;4.07;2.35;;;;;;;-0.62;100.00;102972.38;5073319;28;20049;-86
2024/01/08 09:59:16;;;;;;;4.18;2.78;;;;;;;-0.61;100.00;102968.78;5069406;28;20095;-87
2024/01/08 10:01:43;;;;;;;6.25;2.90;;;;;;;-0.59;100.00;102980.19;5075985;28;20037;-86
2024/01/08 10:04:11;;;;;;;5.00;2.53;;;;;;;-0.62;100.00;102981.25;5076831;28;20451;-86
2024/01/08 10:06:39;;;;;;;6.55;3.97;;;;;;;-0.56;100.00;102983.56;5077801;28;20040;-88
2024/01/08 10:09:14;;;;;;;6.45;3.60;;;;;;;-0.58;100.00;102973.91;5076436;28;20086;-87
2024/01/08 10:11:47;;;;;;;5.03;2.92;;;;;;;-0.54;100.00;102970.97;5077130;28;20024;-87
2024/01/08 10:14:22;;;;;;;8.25;4.32;;;;;;;-0.40;100.00;102969.31;5077501;28;20059;-86
2024/01/08 10:16:47;;;;;;;6.77;3.30;;;;;;;-0.35;100.00;102969.91;5060624;28;20028;-87
2024/01/08 10:19:23;;;;;;;4.60;3.00;;;;;;;-0.25;100.00;102970.19;5077234;28;20020;-87
2024/01/08 10:22:47;;;;;;;5.80;4.03;;;;;;;-0.16;100.00;102958.09;5076410;28;20046;-86
2024/01/08 10:25:25;;;;;;;7.90;4.18;;;;;;;-0.20;100.00;102962.78;5076245;28;20041;-87
2024/01/08 10:27:53;;;;;;;5.80;2.80;;;;;;;-0.08;100.00;102969.19;5078099;28;20040;-87
2024/01/08 10:30:21;;;;;;;5.55;3.38;;;;;;;-0.11;100.00;102961.38;5075911;28;20040;-87
2024/01/08 10:32:50;;;;;;;5.43;2.60;;;;;;;-0.09;100.00;102956.78;5076225;28;20032;-87
2024/01/08 10:35:18;;;;;;;4.60;3.30;;;;;;;0.06;100.00;102950.53;5076069;28;20039;-87
2024/01/08 10:37:49;;;;;;;4.47;2.97;;;;;;;0.29;100.00;102954.41;5076277;28;20048;-87
2024/01/08 10:40:32;;;;;;;5.22;3.50;;;;;;;0.28;100.00;102958.06;5076383;28;20036;-87
2024/01/08 10:43:00;;;;;;;5.53;3.10;;;;;;;0.29;100.00;102951.75;5075906;28;20028;-87
2024/01/08 10:45:31;;;;;;;5.70;3.08;;;;;;;0.31;100.00;102940.97;5076440;28;20051;-87
2024/01/08 10:51:33;;;;;;;3.78;2.42;;;;;;;0.49;100.00;102931.78;5055058;28;20155;-87
2024/01/08 10:57:34;;;;;;;;;;;;;;;;;;;;;
2024/01/08 11:00:14;;;;;;;3.72;2.40;;;;;;;0.25;100.00;102936.00;5015643;28;20038;-87
2024/01/08 11:02:44;;;;;;;5.07;3.57;;;;;;;0.37;100.00;102935.25;5014924;28;20045;-86
2024/01/08 11:05:44;;;;;;;5.40;2.95;;;;;;;0.57;100.00;102943.81;5037078;28;20116;-86
2024/01/08 11:08:13;;;;;;;5.10;2.80;;;;;;;0.74;100.00;102921.31;5031881;28;20045;-87
2024/01/08 11:10:39;;;;;;;4.25;2.25;;;;;;;0.78;100.00;102922.84;5037674;28;20041;-87
2024/01/08 11:13:12;;;;;;;4.33;2.30;;;;;;;0.82;100.00;102927.88;5038154;28;20041;-87
2024/01/08 11:15:52;;;;;;;4.43;2.15;;;;;;;0.87;100.00;102931.13;5047559;28;20082;-86
2024/01/08 11:18:41;;;;;;;4.85;3.30;;;;;;;0.94;100.00;102926.22;5055387;28;20029;-87
2024/01/08 11:21:07;;;;;;;4.17;2.50;;;;;;;0.98;100.00;102927.75;5055163;28;20025;-87
2024/01/08 11:23:47;;;;;;;6.00;3.28;;;;;;;1.07;100.00;102928.97;5056037;28;20287;-87
2024/01/08 11:29:35;;;;;;;3.23;1.83;;;;;;;1.04;100.00;102919.31;5073976;28;20086;-87
2024/01/08 11:35:42;;;;;;;;;;;;;;;;;;;;;
2024/01/08 11:38:58;;;;;;;6.05;2.78;;;;;;;1.51;100.00;102911.72;5054265;28;20062;-87